Flughafen Paderborn/Lippstadt

Aus VATSIM Germany
Version vom 19. September 2020, 02:40 Uhr von 810881 (Diskussion | Beiträge) (810881 verschob die Seite Flughafen Paderborn-Lippstadt nach Flughafen Paderborn/Lippstadt, ohne dabei eine Weiterleitung anzulegen)

(Unterschied) ← Nächstältere Version | Bestätigte Version (Unterschied) | Aktuelle Version (Unterschied) | Nächstjüngere Version → (Unterschied)
Wechseln zu:Navigation, Suche
UnderCon icon.svg.pngDieser Artikel ist noch im Aufbau. Der Artikel kann daher unvollständig sein oder Fehler enthalten!


Paderborn Lippstadt Airport
ICAO / IATA EDLP / PAD
Koordinaten N51°36′51″  E008°36′59″
Höhe 213 m / 699 ft
Wetter EDLP 190550Z 18010KT 9999 FEW026 BKN030 13/10 Q1018
Pisten
Platzfrequenzen
Nur für Flugsimulationszwecke!



Informationen für Piloten und Lotsen
Pilotenbriefing

Standard Operating Procedures (SOP)

Letters of Agreement (LoAs)

Airport Charts


Vorlage:Navigationsleiste Flughäfen EDLL